Time;durP1;ratioP1;P1;durP2;ratioP2;P2;SDS_P1;SDS_P2;PMS_P1;PMS_P2;Temp;Humidity;BMP_temperature;BMP_pressure;BME280_temperature;BME280_humidity;BME280_pressure;Samples;Min_cycle;Max_cycle;Signal;HPM_P1;HPM_P2
2022/12/22 03:26:47;;;;;;;3.83;1.00;;;;;;;;;;5041729;28;20052;-77
2022/12/22 03:29:13;;;;;;;2.55;1.10;;;;;;;;;;5049331;28;20037;-77
2022/12/22 03:31:40;;;;;;;4.22;1.52;;;;;;;;;;5049596;28;20478;-76
2022/12/22 03:34:05;;;;;;;7.40;2.25;;;;;;;;;;5047217;28;20041;-77
2022/12/22 03:36:32;;;;;;;6.60;2.90;;;;;;;;;;5028829;28;20798;-77
2022/12/22 03:38:57;;;;;;;5.38;2.67;;;;;;;;;;5046226;28;20037;-76
2022/12/22 03:46:53;;;;;;;7.65;2.50;;;;;;;;;;5050386;28;22099;-76
2022/12/22 03:49:21;;;;;;;3.95;1.63;;;;;;;;;;5044026;28;20038;-76
2022/12/22 03:51:48;;;;;;;4.22;0.98;;;;;;;;;;5050662;28;20769;-76
2022/12/22 03:54:21;;;;;;;1.95;0.52;;;;;;;;;;5045983;28;20159;-76
2022/12/22 03:56:47;;;;;;;1.38;0.40;;;;;;;;;;5032234;28;20029;-76
2022/12/22 03:59:14;;;;;;;2.15;0.70;;;;;;;;;;5040964;28;20043;-77
2022/12/22 04:01:48;;;;;;;3.53;1.08;;;;;;;;;;5044517;28;20021;-77
2022/12/22 04:04:15;;;;;;;5.78;1.58;;;;;;;;;;5044592;28;20071;-76
2022/12/22 04:06:41;;;;;;;13.48;5.20;;;;;;;;;;5049246;28;20903;-76
2022/12/22 04:09:07;;;;;;;8.18;2.55;;;;;;;;;;5049097;28;20061;-76
2022/12/22 04:14:18;;;;;;;21.15;12.82;;;;;;;;;;5039723;28;20044;-77
2022/12/22 04:16:44;;;;;;;7.10;2.30;;;;;;;;;;5038759;28;20025;-77
2022/12/22 04:19:10;;;;;;;2.03;0.80;;;;;;;;;;5043479;28;20056;-76
2022/12/22 04:21:36;;;;;;;5.68;1.80;;;;;;;;;;5037154;28;20040;-76
2022/12/22 04:24:02;;;;;;;5.32;1.50;;;;;;;;;;5043861;28;20028;-76
2022/12/22 04:26:29;;;;;;;4.53;1.60;;;;;;;;;;5046903;28;20087;-76
2022/12/22 04:28:55;;;;;;;5.55;2.47;;;;;;;;;;5049190;28;20111;-77
2022/12/22 04:31:21;;;;;;;5.45;1.42;;;;;;;;;;5048306;28;20027;-76
2022/12/22 04:33:47;;;;;;;4.97;1.40;;;;;;;;;;5048849;28;20036;-76
2022/12/22 04:36:14;;;;;;;2.83;0.80;;;;;;;;;;5041587;28;20048;-76
2022/12/22 04:38:40;;;;;;;6.03;0.63;;;;;;;;;;5039971;28;20037;-76
2022/12/22 04:41:06;;;;;;;1.92;0.75;;;;;;;;;;5041353;28;20036;-77
2022/12/22 04:43:33;;;;;;;8.38;3.50;;;;;;;;;;5041524;28;20040;-76
2022/12/22 04:45:59;;;;;;;6.28;3.10;;;;;;;;;;5045580;28;20043;-77
2022/12/22 04:48:25;;;;;;;3.50;0.90;;;;;;;;;;5046424;28;20041;-77
2022/12/22 04:50:52;;;;;;;2.97;1.10;;;;;;;;;;5042098;28;20106;-76
2022/12/22 04:53:19;;;;;;;12.73;6.05;;;;;;;;;;5046261;28;20104;-77
2022/12/22 04:55:54;;;;;;;14.30;7.78;;;;;;;;;;5045366;28;20026;-76
2022/12/22 04:58:20;;;;;;;6.25;1.80;;;;;;;;;;5045566;28;20556;-77
2022/12/22 05:00:46;;;;;;;7.72;1.83;;;;;;;;;;5044760;28;20025;-76
2022/12/22 05:03:12;;;;;;;3.40;0.88;;;;;;;;;;5045291;28;20041;-76
2022/12/22 05:05:38;;;;;;;4.20;0.77;;;;;;;;;;5042095;28;20034;-77
2022/12/22 05:08:05;;;;;;;2.65;0.70;;;;;;;;;;5039349;28;20040;-76
2022/12/22 05:10:31;;;;;;;2.70;0.80;;;;;;;;;;5043560;28;20036;-76
2022/12/22 05:12:57;;;;;;;3.22;0.95;;;;;;;;;;5045722;28;20739;-76
2022/12/22 05:15:30;;;;;;;2.70;0.75;;;;;;;;;;5045796;28;20037;-76
2022/12/22 05:17:57;;;;;;;6.20;0.75;;;;;;;;;;5035451;28;20047;-76
2022/12/22 05:20:23;;;;;;;4.95;1.60;;;;;;;;;;5045031;28;20033;-76
2022/12/22 05:22:49;;;;;;;4.53;0.82;;;;;;;;;;5039135;28;20060;-76
2022/12/22 05:25:15;;;;;;;4.55;0.77;;;;;;;;;;5047096;28;20432;-77
2022/12/22 05:27:42;;;;;;;3.53;0.82;;;;;;;;;;5039667;28;20032;-76
2022/12/22 05:30:08;;;;;;;3.05;0.77;;;;;;;;;;5047437;28;20468;-77
2022/12/22 05:32:35;;;;;;;2.85;0.85;;;;;;;;;;5035363;28;20039;-76
2022/12/22 05:35:01;;;;;;;4.43;1.30;;;;;;;;;;5030149;28;20082;-76
2022/12/22 05:37:27;;;;;;;4.00;0.85;;;;;;;;;;5045173;28;20024;-76
2022/12/22 05:39:53;;;;;;;3.58;1.35;;;;;;;;;;5039030;28;20025;-76
2022/12/22 05:42:34;;;;;;;9.98;5.32;;;;;;;;;;5045704;28;20033;-76
2022/12/22 05:45:00;;;;;;;11.57;4.55;;;;;;;;;;5047315;28;20045;-76
2022/12/22 05:47:26;;;;;;;7.55;3.00;;;;;;;;;;5042317;28;20040;-76
2022/12/22 05:49:52;;;;;;;3.38;0.88;;;;;;;;;;5047949;28;20053;-77
2022/12/22 05:52:18;;;;;;;4.47;2.08;;;;;;;;;;5044152;28;20116;-76
2022/12/22 05:54:44;;;;;;;3.85;1.40;;;;;;;;;;5039245;28;20037;-76
2022/12/22 05:57:10;;;;;;;4.63;2.08;;;;;;;;;;5042445;28;20029;-77
2022/12/22 05:59:36;;;;;;;5.55;1.45;;;;;;;;;;5031323;28;20040;-76
2022/12/22 06:02:02;;;;;;;3.63;1.50;;;;;;;;;;5043590;28;20044;-77
2022/12/22 06:04:28;;;;;;;15.57;7.10;;;;;;;;;;5037208;28;20060;-76
2022/12/22 06:06:54;;;;;;;18.88;11.73;;;;;;;;;;5045843;28;20037;-77
2022/12/22 06:09:20;;;;;;;9.48;3.15;;;;;;;;;;5046196;28;20034;-77
2022/12/22 06:11:46;;;;;;;7.93;2.15;;;;;;;;;;5046107;28;20893;-76
2022/12/22 06:14:12;;;;;;;6.80;3.08;;;;;;;;;;5037679;28;20060;-76
2022/12/22 06:16:38;;;;;;;10.55;4.88;;;;;;;;;;5042481;28;20037;-76
2022/12/22 06:19:04;;;;;;;9.88;2.95;;;;;;;;;;5039736;28;20052;-76
2022/12/22 06:21:30;;;;;;;2.38;0.60;;;;;;;;;;5044219;28;20082;-77
2022/12/22 06:23:56;;;;;;;4.50;0.80;;;;;;;;;;5040370;28;20479;-76
2022/12/22 06:26:22;;;;;;;3.00;0.70;;;;;;;;;;5040621;28;20029;-77
2022/12/22 06:28:48;;;;;;;3.92;1.35;;;;;;;;;;5045032;28;20043;-76
2022/12/22 06:31:14;;;;;;;5.32;1.67;;;;;;;;;;5043528;28;20029;-76
2022/12/22 06:33:40;;;;;;;6.47;2.90;;;;;;;;;;5045333;28;20036;-76
2022/12/22 06:36:07;;;;;;;5.72;1.80;;;;;;;;;;5047729;28;20037;-77
2022/12/22 06:38:34;;;;;;;6.45;2.50;;;;;;;;;;5044274;28;20071;-76
2022/12/22 06:41:00;;;;;;;7.30;2.50;;;;;;;;;;5040089;28;20040;-76
2022/12/22 06:43:26;;;;;;;7.38;1.95;;;;;;;;;;5045387;28;20029;-76
2022/12/22 06:45:52;;;;;;;7.95;3.03;;;;;;;;;;5042391;28;20043;-76
2022/12/22 06:48:18;;;;;;;8.98;3.05;;;;;;;;;;5045654;28;20365;-77
2022/12/22 06:50:44;;;;;;;9.52;3.35;;;;;;;;;;5044653;28;20094;-76
2022/12/22 06:53:11;;;;;;;10.57;4.80;;;;;;;;;;5043013;28;20025;-77
2022/12/22 06:55:37;;;;;;;11.10;3.47;;;;;;;;;;5042169;28;20041;-77
2022/12/22 06:58:03;;;;;;;7.10;2.20;;;;;;;;;;5036898;28;20036;-77
2022/12/22 07:00:29;;;;;;;9.50;3.08;;;;;;;;;;5042003;28;20047;-78
2022/12/22 07:02:55;;;;;;;8.63;3.40;;;;;;;;;;5045476;28;20017;-77
2022/12/22 07:05:25;;;;;;;12.48;2.35;;;;;;;;;;5045361;28;20575;-77
2022/12/22 07:07:51;;;;;;;5.07;2.17;;;;;;;;;;5048911;28;20029;-77
2022/12/22 07:10:17;;;;;;;10.00;2.47;;;;;;;;;;5045684;28;20468;-77
2022/12/22 07:12:43;;;;;;;14.13;4.22;;;;;;;;;;5047682;28;20034;-76
2022/12/22 07:15:12;;;;;;;11.27;3.10;;;;;;;;;;5047092;28;20060;-76
2022/12/22 07:17:40;;;;;;;5.22;1.00;;;;;;;;;;5045607;28;20021;-76
2022/12/22 07:20:06;;;;;;;5.00;2.63;;;;;;;;;;5047465;28;20855;-76
2022/12/22 07:22:32;;;;;;;5.00;1.08;;;;;;;;;;5046147;28;20047;-76
2022/12/22 07:24:58;;;;;;;12.20;8.85;;;;;;;;;;5049200;28;20045;-76
2022/12/22 07:27:25;;;;;;;6.25;2.58;;;;;;;;;;5045383;28;20029;-76
2022/12/22 07:29:50;;;;;;;8.00;2.55;;;;;;;;;;5047856;28;20063;-76
2022/12/22 07:32:16;;;;;;;10.27;1.90;;;;;;;;;;5047797;28;20029;-75
2022/12/22 07:34:42;;;;;;;11.25;2.30;;;;;;;;;;5045531;28;20036;-76
2022/12/22 07:37:09;;;;;;;7.22;2.72;;;;;;;;;;5048894;28;21496;-76
2022/12/22 07:39:35;;;;;;;11.25;6.10;;;;;;;;;;5047249;28;20165;-76
2022/12/22 07:44:46;;;;;;;9.95;3.50;;;;;;;;;;5047347;28;20411;-76
2022/12/22 07:47:12;;;;;;;9.02;3.17;;;;;;;;;;5046388;28;20032;-76
2022/12/22 07:52:22;;;;;;;20.67;18.65;;;;;;;;;;5044852;28;20159;-76
2022/12/22 07:54:48;;;;;;;14.63;9.82;;;;;;;;;;5047305;28;20127;-75
2022/12/22 07:57:14;;;;;;;9.57;6.78;;;;;;;;;;5030096;28;20017;-75
2022/12/22 07:59:40;;;;;;;7.90;3.35;;;;;;;;;;5045852;28;20033;-74
2022/12/22 08:02:09;;;;;;;4.20;0.88;;;;;;;;;;5045276;28;20106;-74
2022/12/22 08:04:35;;;;;;;6.85;3.30;;;;;;;;;;5048454;28;20041;-76
2022/12/22 08:07:01;;;;;;;11.82;3.72;;;;;;;;;;5046779;28;20025;-76
2022/12/22 08:09:27;;;;;;;9.65;2.60;;;;;;;;;;5048982;28;20446;-75
2022/12/22 08:11:53;;;;;;;6.28;1.42;;;;;;;;;;5041567;28;20111;-75
2022/12/22 08:14:19;;;;;;;6.25;1.58;;;;;;;;;;5047919;28;20460;-75
2022/12/22 08:16:45;;;;;;;4.47;0.70;;;;;;;;;;5046683;28;20029;-76
2022/12/22 08:19:11;;;;;;;7.82;1.05;;;;;;;;;;5047857;28;20029;-75
2022/12/22 08:21:37;;;;;;;4.47;0.95;;;;;;;;;;5044119;28;20025;-76
2022/12/22 08:24:03;;;;;;;10.63;1.25;;;;;;;;;;5045449;28;21405;-76
2022/12/22 08:26:50;;;;;;;6.57;1.60;;;;;;;;;;5046930;28;20071;-76
2022/12/22 08:29:36;;;;;;;6.22;1.95;;;;;;;;;;5045452;28;20052;-76
2022/12/22 08:32:02;;;;;;;31.83;19.23;;;;;;;;;;5042130;28;20051;-77
2022/12/22 08:34:28;;;;;;;52.47;30.63;;;;;;;;;;5047055;28;20112;-76
2022/12/22 08:36:56;;;;;;;85.20;53.10;;;;;;;;;;5042998;28;20025;-76
2022/12/22 08:39:22;;;;;;;20.17;8.70;;;;;;;;;;5047688;28;20078;-76
2022/12/22 08:41:49;;;;;;;3.63;1.02;;;;;;;;;;5044287;28;20029;-76
2022/12/22 08:44:15;;;;;;;7.25;2.15;;;;;;;;;;5044800;28;20094;-77
2022/12/22 08:46:41;;;;;;;5.22;1.25;;;;;;;;;;5047509;28;20040;-76
2022/12/22 08:49:07;;;;;;;4.70;1.40;;;;;;;;;;5043226;28;20037;-76
2022/12/22 08:51:33;;;;;;;6.40;1.52;;;;;;;;;;5045417;28;20048;-76
2022/12/22 08:53:59;;;;;;;9.73;1.58;;;;;;;;;;5045895;28;20364;-76
2022/12/22 08:56:25;;;;;;;9.82;3.17;;;;;;;;;;5047477;28;20032;-76
2022/12/22 08:58:51;;;;;;;7.65;3.40;;;;;;;;;;5047477;28;20037;-76
2022/12/22 09:01:18;;;;;;;7.50;2.33;;;;;;;;;;5039697;28;20456;-77
2022/12/22 09:03:47;;;;;;;7.03;2.50;;;;;;;;;;5043653;28;20113;-76
2022/12/22 09:06:13;;;;;;;11.98;4.70;;;;;;;;;;5035509;28;20070;-76
2022/12/22 09:08:39;;;;;;;9.48;2.58;;;;;;;;;;5039847;28;20060;-76
2022/12/22 09:11:05;;;;;;;10.25;3.28;;;;;;;;;;5038107;28;20029;-76
2022/12/22 09:13:31;;;;;;;9.75;3.17;;;;;;;;;;5046539;28;20033;-76
2022/12/22 09:15:57;;;;;;;4.57;1.00;;;;;;;;;;5037044;28;20033;-76
2022/12/22 09:18:23;;;;;;;3.22;0.77;;;;;;;;;;5044189;28;20810;-76
2022/12/22 09:20:55;;;;;;;7.28;1.35;;;;;;;;;;5044485;28;20063;-76
2022/12/22 09:23:21;;;;;;;8.25;2.53;;;;;;;;;;5044649;28;20460;-75
2022/12/22 09:25:47;;;;;;;18.42;8.20;;;;;;;;;;5044554;28;20032;-77
2022/12/22 09:28:13;;;;;;;8.70;3.15;;;;;;;;;;5041794;28;20114;-76
2022/12/22 09:30:39;;;;;;;14.93;3.90;;;;;;;;;;5044217;28;20037;-76
2022/12/22 09:33:05;;;;;;;9.07;2.80;;;;;;;;;;5047384;28;20029;-76
2022/12/22 09:35:31;;;;;;;8.35;2.53;;;;;;;;;;5046864;28;20112;-76
2022/12/22 09:37:57;;;;;;;8.00;2.38;;;;;;;;;;5043998;28;20380;-76
2022/12/22 09:40:23;;;;;;;7.88;2.30;;;;;;;;;;5045883;28;20159;-76
2022/12/22 09:42:49;;;;;;;9.38;2.17;;;;;;;;;;5044396;28;20420;-76
2022/12/22 09:45:19;;;;;;;8.77;2.78;;;;;;;;;;5046195;28;20033;-76
2022/12/22 09:47:52;;;;;;;16.15;3.67;;;;;;;;;;5040464;28;20029;-76
2022/12/22 09:50:22;;;;;;;10.98;2.80;;;;;;;;;;5044144;28;20052;-76
2022/12/22 09:52:49;;;;;;;8.90;3.33;;;;;;;;;;5044195;28;20029;-76
2022/12/22 09:55:25;;;;;;;11.73;3.25;;;;;;;;;;5037153;28;20033;-76
2022/12/22 09:57:53;;;;;;;24.00;12.18;;;;;;;;;;5034196;28;20091;-76
2022/12/22 10:00:20;;;;;;;17.70;6.10;;;;;;;;;;5040826;28;20067;-76
2022/12/22 10:02:52;;;;;;;12.50;5.75;;;;;;;;;;5036606;28;20037;-76
2022/12/22 10:05:27;;;;;;;11.65;4.97;;;;;;;;;;5042798;28;20116;-77
2022/12/22 10:07:56;;;;;;;8.40;2.80;;;;;;;;;;5043931;28;20071;-77
2022/12/22 10:10:27;;;;;;;9.90;2.40;;;;;;;;;;5043306;28;20021;-76
2022/12/22 10:13:00;;;;;;;12.80;5.07;;;;;;;;;;5045342;28;20040;-76
2022/12/22 10:15:26;;;;;;;14.63;7.75;;;;;;;;;;5042996;28;20037;-77
2022/12/22 10:17:54;;;;;;;14.27;7.13;;;;;;;;;;5041900;28;20029;-76
2022/12/22 10:20:28;;;;;;;11.07;4.32;;;;;;;;;;5037200;28;20094;-76
2022/12/22 10:22:58;;;;;;;5.35;1.75;;;;;;;;;;5044053;28;20745;-76
2022/12/22 10:25:28;;;;;;;9.68;2.20;;;;;;;;;;5037576;28;20029;-76
2022/12/22 10:27:55;;;;;;;8.55;4.63;;;;;;;;;;5045629;28;20454;-76
2022/12/22 10:30:26;;;;;;;8.70;2.30;;;;;;;;;;5047482;28;20037;-76
2022/12/22 10:33:05;;;;;;;9.97;3.53;;;;;;;;;;5034878;28;20037;-77
2022/12/22 10:35:42;;;;;;;14.63;4.93;;;;;;;;;;5043393;28;20052;-76
2022/12/22 10:38:14;;;;;;;14.75;6.28;;;;;;;;;;5045428;28;20009;-77
2022/12/22 10:40:44;;;;;;;13.63;5.80;;;;;;;;;;5036210;28;20025;-77
2022/12/22 10:43:16;;;;;;;11.73;4.97;;;;;;;;;;5045868;28;20028;-76
2022/12/22 10:45:46;;;;;;;10.63;2.50;;;;;;;;;;5049444;28;20065;-76
2022/12/22 10:48:12;;;;;;;7.55;2.28;;;;;;;;;;5049076;28;20028;-76
2022/12/22 10:50:44;;;;;;;10.18;2.70;;;;;;;;;;5046630;28;20048;-76
2022/12/22 10:53:10;;;;;;;;;;;;;;;;;;5047164;28;20039;-76
2022/12/22 10:55:38;;;;;;;6.55;1.70;;;;;;;;;;5049583;28;19924;-76
2022/12/22 10:58:10;;;;;;;8.77;1.98;;;;;;;;;;5044817;28;20527;-76
2022/12/22 11:00:40;;;;;;;8.02;1.42;;;;;;;;;;5043081;28;20021;-76
2022/12/22 11:03:06;;;;;;;6.47;1.30;;;;;;;;;;5046734;28;20020;-77
2022/12/22 11:05:33;;;;;;;8.30;1.58;;;;;;;;;;5048289;28;20029;-77
2022/12/22 11:08:01;;;;;;;6.40;1.42;;;;;;;;;;5048458;28;20197;-77
2022/12/22 11:10:36;;;;;;;13.02;1.77;;;;;;;;;;5034997;28;20042;-76
2022/12/22 11:13:08;;;;;;;7.07;1.67;;;;;;;;;;5047413;28;20028;-77
2022/12/22 11:15:43;;;;;;;9.40;2.30;;;;;;;;;;5049923;28;20441;-78
2022/12/22 11:18:36;;;;;;;11.43;4.50;;;;;;;;;;5047609;28;20040;-78
2022/12/22 11:21:15;;;;;;;17.45;7.50;;;;;;;;;;5039139;28;20060;-77
2022/12/22 11:23:47;;;;;;;16.17;7.32;;;;;;;;;;5039571;28;20055;-75
2022/12/22 11:26:19;;;;;;;14.68;5.05;;;;;;;;;;5045330;28;20029;-75
2022/12/22 11:28:54;;;;;;;12.13;5.28;;;;;;;;;;5043536;28;20440;-76
2022/12/22 11:31:23;;;;;;;11.05;4.47;;;;;;;;;;5046858;28;20412;-76
2022/12/22 11:33:52;;;;;;;8.00;3.10;;;;;;;;;;5046569;28;20047;-76
2022/12/22 11:36:26;;;;;;;8.40;1.63;;;;;;;;;;5039203;28;20452;-76
2022/12/22 11:39:00;;;;;;;9.50;2.50;;;;;;;;;;5036290;28;20033;-77
2022/12/22 11:41:44;;;;;;;6.88;1.83;;;;;;;;;;5046766;28;20021;-77
2022/12/22 11:44:22;;;;;;;8.60;2.15;;;;;;;;;;5045598;28;20103;-76
2022/12/22 11:46:54;;;;;;;9.95;3.17;;;;;;;;;;5050625;28;20025;-76
2022/12/22 11:49:22;;;;;;;12.43;4.38;;;;;;;;;;5047962;28;20033;-76
2022/12/22 11:51:48;;;;;;;8.93;2.97;;;;;;;;;;5049409;28;20044;-76
2022/12/22 11:54:17;;;;;;;9.27;2.20;;;;;;;;;;5043295;28;20056;-77
2022/12/22 11:56:50;;;;;;;9.60;5.15;;;;;;;;;;5038834;28;20045;-77
2022/12/22 11:59:25;;;;;;;9.55;4.00;;;;;;;;;;5038932;28;20112;-76
2022/12/22 12:02:01;;;;;;;9.35;3.95;;;;;;;;;;5038335;28;20032;-76
2022/12/22 12:04:33;;;;;;;15.25;7.20;;;;;;;;;;5044429;28;20037;-77
2022/12/22 12:06:59;;;;;;;;;;;;;;;;;;5048368;28;20479;-76
2022/12/22 12:09:43;;;;;;;17.67;6.78;;;;;;;;;;5046512;28;19931;-76
2022/12/22 12:12:16;;;;;;;12.38;5.70;;;;;;;;;;5041431;28;20124;-77
2022/12/22 12:14:54;;;;;;;13.90;5.53;;;;;;;;;;5047166;28;20040;-76
2022/12/22 12:17:29;;;;;;;14.63;4.78;;;;;;;;;;5046634;28;20067;-76
2022/12/22 12:19:58;;;;;;;10.75;5.60;;;;;;;;;;5042330;28;20034;-76
2022/12/22 12:22:43;;;;;;;14.43;6.18;;;;;;;;;;5042717;28;20025;-76
2022/12/22 12:25:10;;;;;;;12.77;5.40;;;;;;;;;;5037514;28;20060;-76
2022/12/22 12:27:42;;;;;;;11.98;4.82;;;;;;;;;;5042888;28;20114;-76
2022/12/22 12:30:11;;;;;;;9.93;1.77;;;;;;;;;;5047548;28;20037;-77
2022/12/22 12:32:40;;;;;;;10.15;2.75;;;;;;;;;;5046132;28;20055;-77
2022/12/22 12:35:30;;;;;;;6.90;1.70;;;;;;;;;;5046553;28;20043;-76
2022/12/22 12:38:01;;;;;;;7.90;3.17;;;;;;;;;;5043241;28;20040;-77
2022/12/22 12:40:27;;;;;;;11.23;2.37;;;;;;;;;;5045988;28;20037;-77
2022/12/22 12:42:53;;;;;;;7.65;2.60;;;;;;;;;;5046281;28;21785;-77
2022/12/22 12:45:34;;;;;;;10.23;4.70;;;;;;;;;;5045015;28;20119;-77
2022/12/22 12:48:20;;;;;;;10.50;4.15;;;;;;;;;;5046174;28;20471;-77
2022/12/22 12:50:49;;;;;;;13.50;5.10;;;;;;;;;;5044271;28;20496;-76
2022/12/22 12:53:16;;;;;;;11.68;5.43;;;;;;;;;;5044147;28;20450;-76
2022/12/22 12:55:47;;;;;;;12.13;5.03;;;;;;;;;;5046803;28;20025;-77
2022/12/22 12:58:33;;;;;;;15.77;4.72;;;;;;;;;;5044238;28;20033;-76
2022/12/22 13:00:59;;;;;;;11.48;4.30;;;;;;;;;;5042278;28;20776;-76
2022/12/22 13:03:28;;;;;;;12.75;4.97;;;;;;;;;;5039910;28;20044;-76
2022/12/22 13:05:58;;;;;;;11.82;5.05;;;;;;;;;;5035650;28;20588;-76
2022/12/22 13:08:24;;;;;;;15.30;4.93;;;;;;;;;;5042202;28;20067;-76
2022/12/22 13:10:53;;;;;;;14.85;9.35;;;;;;;;;;5039982;28;20029;-77
2022/12/22 13:13:22;;;;;;;17.58;8.35;;;;;;;;;;5048203;28;20472;-76
2022/12/22 13:15:49;;;;;;;18.15;7.60;;;;;;;;;;5043500;28;20025;-76
2022/12/22 13:18:24;;;;;;;17.55;7.72;;;;;;;;;;5040075;28;20096;-76
2022/12/22 13:21:21;;;;;;;18.83;9.52;;;;;;;;;;5045158;28;20111;-76
2022/12/22 13:23:47;;;;;;;20.85;11.90;;;;;;;;;;5039899;28;20048;-77
2022/12/22 13:26:15;;;;;;;20.40;10.23;;;;;;;;;;5042936;28;20029;-76
2022/12/22 13:28:47;;;;;;;17.30;8.88;;;;;;;;;;5047609;28;20041;-76
2022/12/22 13:31:18;;;;;;;15.25;6.90;;;;;;;;;;5040230;28;20056;-76
2022/12/22 13:33:44;;;;;;;37.47;21.73;;;;;;;;;;5043749;28;20387;-76
2022/12/22 13:36:21;;;;;;;19.83;10.07;;;;;;;;;;5041203;28;20492;-76
2022/12/22 13:38:57;;;;;;;14.85;5.45;;;;;;;;;;5045561;28;20048;-75
2022/12/22 13:41:23;;;;;;;11.05;4.28;;;;;;;;;;5042532;28;20037;-76
2022/12/22 13:43:53;;;;;;;15.57;4.03;;;;;;;;;;5043830;28;20134;-75
2022/12/22 13:46:19;;;;;;;12.73;4.30;;;;;;;;;;5044455;28;20070;-76
2022/12/22 13:48:46;;;;;;;11.00;3.72;;;;;;;;;;5036472;28;20038;-76
2022/12/22 13:51:21;;;;;;;14.32;5.85;;;;;;;;;;5041611;28;20743;-76
2022/12/22 13:53:48;;;;;;;14.30;6.68;;;;;;;;;;5044078;28;20116;-75
2022/12/22 13:56:16;;;;;;;15.18;6.43;;;;;;;;;;5039322;28;20568;-76
2022/12/22 13:58:46;;;;;;;16.00;5.05;;;;;;;;;;5046538;28;20037;-75
2022/12/22 14:01:12;;;;;;;14.10;4.82;;;;;;;;;;5039405;28;20325;-76
2022/12/22 14:03:39;;;;;;;13.77;6.90;;;;;;;;;;5040104;28;20041;-75
2022/12/22 14:06:20;;;;;;;17.58;6.10;;;;;;;;;;5042054;28;20033;-76
2022/12/22 14:08:46;;;;;;;8.98;3.55;;;;;;;;;;5043830;28;20049;-76
2022/12/22 14:11:12;;;;;;;15.07;5.35;;;;;;;;;;5042437;28;20036;-76
2022/12/22 14:13:38;;;;;;;14.10;4.95;;;;;;;;;;5042145;28;20325;-76
2022/12/22 14:16:04;;;;;;;17.05;5.32;;;;;;;;;;5050311;28;20032;-76
2022/12/22 14:18:31;;;;;;;16.42;6.75;;;;;;;;;;5047224;28;20116;-76
2022/12/22 14:20:58;;;;;;;13.75;5.00;;;;;;;;;;5046868;28;20029;-77
2022/12/22 14:23:31;;;;;;;13.15;5.82;;;;;;;;;;5051252;28;20395;-76
2022/12/22 14:25:58;;;;;;;17.92;7.28;;;;;;;;;;5048576;28;20064;-76
2022/12/22 14:28:26;;;;;;;16.35;6.28;;;;;;;;;;5044040;28;20071;-76
2022/12/22 14:30:53;;;;;;;11.63;4.13;;;;;;;;;;5048439;28;20067;-75
2022/12/22 14:33:19;;;;;;;13.20;4.93;;;;;;;;;;5046856;28;20055;-75
2022/12/22 14:35:46;;;;;;;11.60;4.35;;;;;;;;;;5046629;28;20567;-76
2022/12/22 14:38:16;;;;;;;15.15;4.55;;;;;;;;;;5048398;28;20091;-75
2022/12/22 14:40:43;;;;;;;8.57;3.72;;;;;;;;;;5049118;28;20025;-75
2022/12/22 14:43:18;;;;;;;14.30;5.00;;;;;;;;;;5045778;28;20032;-76
2022/12/22 14:45:45;;;;;;;15.15;3.15;;;;;;;;;;5048446;28;20452;-76
2022/12/22 14:48:18;;;;;;;24.33;14.77;;;;;;;;;;5049405;28;20032;-76
2022/12/22 14:50:48;;;;;;;28.25;14.13;;;;;;;;;;5048896;28;20041;-76
2022/12/22 14:53:15;;;;;;;22.48;10.10;;;;;;;;;;5047197;28;20035;-77
2022/12/22 14:55:42;;;;;;;15.13;6.22;;;;;;;;;;5047975;28;20533;-77
2022/12/22 14:58:08;;;;;;;16.08;5.90;;;;;;;;;;5047992;28;20033;-77
2022/12/22 15:00:38;;;;;;;15.00;5.57;;;;;;;;;;5049830;28;20035;-77
2022/12/22 15:03:06;;;;;;;17.15;9.18;;;;;;;;;;5046786;28;20036;-77
2022/12/22 15:05:36;;;;;;;20.98;9.85;;;;;;;;;;5049442;28;20040;-76
2022/12/22 15:08:03;;;;;;;19.20;10.48;;;;;;;;;;5047624;28;20170;-76
2022/12/22 15:10:35;;;;;;;20.30;8.73;;;;;;;;;;5064090;23;20090;-77
2022/12/22 15:13:04;;;;;;;19.38;8.50;;;;;;;;;;5048866;28;20120;-77
2022/12/22 15:15:30;;;;;;;15.90;7.60;;;;;;;;;;5046553;28;20038;-77
2022/12/22 15:17:57;;;;;;;17.02;6.88;;;;;;;;;;5046715;28;20425;-76
2022/12/22 15:20:27;;;;;;;19.38;6.78;;;;;;;;;;5048768;28;20045;-76
2022/12/22 15:22:54;;;;;;;16.83;6.00;;;;;;;;;;5048464;28;20037;-76
2022/12/22 15:25:21;;;;;;;18.45;5.57;;;;;;;;;;5047529;28;20040;-76
2022/12/22 15:27:48;;;;;;;22.90;6.05;;;;;;;;;;5048368;28;20116;-76
2022/12/22 15:30:17;;;;;;;28.58;7.03;;;;;;;;;;5050204;28;20028;-76
2022/12/22 15:32:43;;;;;;;35.35;9.27;;;;;;;;;;5045205;28;20035;-76
2022/12/22 15:35:21;;;;;;;26.20;9.82;;;;;;;;;;5047273;28;20036;-76
2022/12/22 15:37:47;;;;;;;24.65;11.20;;;;;;;;;;5049080;28;20658;-76
2022/12/22 15:40:20;;;;;;;27.77;12.07;;;;;;;;;;5047098;28;20063;-76
2022/12/22 15:42:46;;;;;;;27.60;12.68;;;;;;;;;;5045514;28;20033;-77
2022/12/22 15:45:12;;;;;;;26.38;12.40;;;;;;;;;;5044881;28;20028;-76
2022/12/22 15:47:39;;;;;;;28.05;11.38;;;;;;;;;;5046196;28;20120;-76
2022/12/22 15:50:07;;;;;;;22.60;8.38;;;;;;;;;;5047686;28;20037;-75
2022/12/22 15:52:33;;;;;;;19.85;6.13;;;;;;;;;;5044917;28;20040;-76
2022/12/22 15:55:00;;;;;;;14.25;4.72;;;;;;;;;;5048303;28;20045;-76
2022/12/22 15:57:26;;;;;;;22.60;10.57;;;;;;;;;;5045682;28;20383;-76
2022/12/22 15:59:52;;;;;;;20.25;9.13;;;;;;;;;;5045061;28;20036;-76
2022/12/22 16:02:18;;;;;;;32.75;13.65;;;;;;;;;;5047743;28;20442;-76
2022/12/22 16:04:44;;;;;;;13.52;4.32;;;;;;;;;;5049012;28;20104;-76
2022/12/22 16:07:11;;;;;;;18.40;9.48;;;;;;;;;;5046059;28;20029;-75
2022/12/22 16:09:40;;;;;;;15.98;4.97;;;;;;;;;;5037084;28;20615;-76
2022/12/22 16:12:12;;;;;;;10.57;2.40;;;;;;;;;;5046975;28;20439;-76
2022/12/22 16:14:38;;;;;;;10.07;2.63;;;;;;;;;;5045452;28;20144;-76
2022/12/22 16:17:04;;;;;;;8.57;2.80;;;;;;;;;;5048122;28;20047;-75
2022/12/22 16:19:30;;;;;;;13.50;3.30;;;;;;;;;;5039975;28;20472;-75
2022/12/22 16:21:56;;;;;;;11.93;3.95;;;;;;;;;;5038959;28;20050;-75
2022/12/22 16:24:27;;;;;;;12.25;3.95;;;;;;;;;;5038483;28;20028;-75
2022/12/22 16:26:55;;;;;;;10.30;2.97;;;;;;;;;;5046991;28;20504;-76
2022/12/22 16:29:22;;;;;;;8.48;2.40;;;;;;;;;;5037809;28;20021;-77
2022/12/22 16:31:48;;;;;;;10.20;3.28;;;;;;;;;;5045812;28;20033;-77
2022/12/22 16:34:14;;;;;;;12.70;3.53;;;;;;;;;;5047298;28;20024;-77
2022/12/22 16:36:40;;;;;;;18.27;6.07;;;;;;;;;;5044570;28;20146;-77
2022/12/22 16:39:07;;;;;;;9.85;3.80;;;;;;;;;;5045412;28;20099;-77
2022/12/22 16:41:33;;;;;;;7.68;2.00;;;;;;;;;;5049407;28;20020;-77
2022/12/22 16:43:59;;;;;;;15.35;3.55;;;;;;;;;;5048297;28;20032;-77
2022/12/22 16:46:25;;;;;;;9.38;3.15;;;;;;;;;;5042762;28;20060;-77
2022/12/22 16:48:53;;;;;;;10.82;3.20;;;;;;;;;;5045064;28;20046;-77
2022/12/22 16:51:33;;;;;;;8.45;2.20;;;;;;;;;;5048819;28;20036;-77
2022/12/22 16:54:00;;;;;;;12.45;3.92;;;;;;;;;;5041838;28;20032;-77
2022/12/22 16:56:29;;;;;;;10.50;2.60;;;;;;;;;;5045812;28;20041;-76
2022/12/22 16:58:55;;;;;;;8.18;2.35;;;;;;;;;;5046242;28;20028;-77
2022/12/22 17:01:28;;;;;;;10.77;2.55;;;;;;;;;;5043762;28;20848;-76
2022/12/22 17:03:54;;;;;;;7.57;1.77;;;;;;;;;;5041292;28;20106;-76
2022/12/22 17:06:20;;;;;;;13.68;2.53;;;;;;;;;;5041524;28;20039;-77
2022/12/22 17:08:46;;;;;;;9.77;2.60;;;;;;;;;;5043262;28;20029;-76
2022/12/22 17:11:17;;;;;;;11.57;3.28;;;;;;;;;;5041467;28;20052;-76
2022/12/22 17:13:43;;;;;;;14.70;4.38;;;;;;;;;;5042987;28;20521;-76
2022/12/22 17:16:20;;;;;;;17.00;7.55;;;;;;;;;;5043694;28;20484;-77
2022/12/22 17:18:46;;;;;;;17.77;8.10;;;;;;;;;;5043470;28;20053;-77
2022/12/22 17:21:13;;;;;;;12.95;2.95;;;;;;;;;;5044835;28;20037;-77
2022/12/22 17:23:40;;;;;;;7.47;1.73;;;;;;;;;;5043472;28;20083;-78
2022/12/22 17:26:07;;;;;;;10.25;2.75;;;;;;;;;;5044041;28;20036;-77
2022/12/22 17:28:34;;;;;;;13.05;2.60;;;;;;;;;;5045353;28;20778;-77
2022/12/22 17:31:01;;;;;;;9.50;2.03;;;;;;;;;;5047379;28;20040;-77
2022/12/22 17:33:27;;;;;;;10.48;1.88;;;;;;;;;;5046865;28;20025;-77
2022/12/22 17:35:53;;;;;;;11.55;1.98;;;;;;;;;;5041911;28;20083;-77
2022/12/22 17:38:20;;;;;;;8.25;0.80;;;;;;;;;;5045985;28;20030;-76
2022/12/22 17:40:47;;;;;;;7.50;1.02;;;;;;;;;;5042271;28;20056;-77
2022/12/22 17:43:14;;;;;;;9.85;1.25;;;;;;;;;;5046684;28;20376;-77
2022/12/22 17:45:40;;;;;;;6.13;1.30;;;;;;;;;;5046529;28;20040;-77
2022/12/22 17:48:06;;;;;;;6.25;0.80;;;;;;;;;;5045567;28;20032;-77
2022/12/22 17:50:32;;;;;;;7.38;0.90;;;;;;;;;;5045271;28;20040;-78
2022/12/22 17:52:59;;;;;;;5.88;0.70;;;;;;;;;;5046248;28;20079;-79
2022/12/22 17:55:26;;;;;;;4.30;0.60;;;;;;;;;;5047357;28;20457;-77
2022/12/22 17:57:52;;;;;;;8.98;1.15;;;;;;;;;;5046544;28;20052;-78
2022/12/22 18:00:21;;;;;;;6.57;1.10;;;;;;;;;;5045526;28;20048;-77
2022/12/22 18:02:47;;;;;;;5.40;0.98;;;;;;;;;;5046869;28;20032;-78
2022/12/22 18:05:17;;;;;;;3.65;0.70;;;;;;;;;;5047097;28;20052;-78
2022/12/22 18:07:43;;;;;;;4.82;0.60;;;;;;;;;;5041968;28;20040;-77
2022/12/22 18:10:24;;;;;;;6.32;2.00;;;;;;;;;;5047097;28;20504;-77
2022/12/22 18:12:51;;;;;;;4.80;1.00;;;;;;;;;;5042986;28;20026;-77
2022/12/22 18:15:18;;;;;;;5.35;1.38;;;;;;;;;;5045337;28;20095;-77
2022/12/22 18:17:44;;;;;;;3.58;0.60;;;;;;;;;;5047653;28;20494;-77
2022/12/22 18:20:14;;;;;;;2.88;0.52;;;;;;;;;;5047307;28;20116;-77
2022/12/22 18:22:40;;;;;;;2.67;0.32;;;;;;;;;;5043868;28;20029;-78